sensor_id;sensor_type;location;lat;lon;timestamp;temperature;humidity
20712;DHT22;10517;50.742;4.224;2023-04-01T00:01:30;10.50;99.90
20712;DHT22;10517;50.742;4.224;2023-04-01T00:03:55;10.50;99.90
20712;DHT22;10517;50.742;4.224;2023-04-01T00:06:21;10.50;99.90
20712;DHT22;10517;50.742;4.224;2023-04-01T00:08:47;10.50;99.90
20712;DHT22;10517;50.742;4.224;2023-04-01T00:11:13;10.50;99.90
20712;DHT22;10517;50.742;4.224;2023-04-01T00:13:39;10.50;99.90
20712;DHT22;10517;50.742;4.224;2023-04-01T00:16:05;10.40;99.90
20712;DHT22;10517;50.742;4.224;2023-04-01T00:18:31;10.40;99.90
20712;DHT22;10517;50.742;4.224;2023-04-01T00:20:57;10.40;99.90
20712;DHT22;10517;50.742;4.224;2023-04-01T00:23:22;10.50;99.90
20712;DHT22;10517;50.742;4.224;2023-04-01T00:25:48;10.50;99.90
20712;DHT22;10517;50.742;4.224;2023-04-01T00:28:16;10.50;99.90
20712;DHT22;10517;50.742;4.224;2023-04-01T00:30:42;10.50;99.90
20712;DHT22;10517;50.742;4.224;2023-04-01T00:33:08;10.50;99.90
20712;DHT22;10517;50.742;4.224;2023-04-01T00:35:33;10.40;99.90
20712;DHT22;10517;50.742;4.224;2023-04-01T00:38:00;10.40;99.90
20712;DHT22;10517;50.742;4.224;2023-04-01T00:40:31;10.60;99.90
20712;DHT22;10517;50.742;4.224;2023-04-01T00:42:58;10.50;99.90
20712;DHT22;10517;50.742;4.224;2023-04-01T00:45:35;10.40;99.90
20712;DHT22;10517;50.742;4.224;2023-04-01T00:48:05;10.40;99.90
20712;DHT22;10517;50.742;4.224;2023-04-01T00:50:33;10.40;99.90
20712;DHT22;10517;50.742;4.224;2023-04-01T00:53:01;10.40;99.90
20712;DHT22;10517;50.742;4.224;2023-04-01T00:55:29;10.40;99.90
20712;DHT22;10517;50.742;4.224;2023-04-01T00:57:58;10.40;99.90
20712;DHT22;10517;50.742;4.224;2023-04-01T01:00:26;10.30;99.90
20712;DHT22;10517;50.742;4.224;2023-04-01T01:02:52;10.30;99.90
20712;DHT22;10517;50.742;4.224;2023-04-01T01:05:22;10.30;99.90
20712;DHT22;10517;50.742;4.224;2023-04-01T01:08:03;10.20;99.90
20712;DHT22;10517;50.742;4.224;2023-04-01T01:10:35;10.20;99.90
20712;DHT22;10517;50.742;4.224;2023-04-01T01:13:15;10.30;99.90
20712;DHT22;10517;50.742;4.224;2023-04-01T01:18:27;10.30;99.90
20712;DHT22;10517;50.742;4.224;2023-04-01T01:21:26;10.30;99.90
20712;DHT22;10517;50.742;4.224;2023-04-01T01:24:28;10.40;99.90
20712;DHT22;10517;50.742;4.224;2023-04-01T01:27:08;10.30;99.90
20712;DHT22;10517;50.742;4.224;2023-04-01T01:35:51;10.30;99.90
20712;DHT22;10517;50.742;4.224;2023-04-01T01:38:21;10.30;99.90
20712;DHT22;10517;50.742;4.224;2023-04-01T01:40:50;10.20;99.90
20712;DHT22;10517;50.742;4.224;2023-04-01T01:43:22;10.10;99.90
20712;DHT22;10517;50.742;4.224;2023-04-01T01:45:55;10.00;99.90
20712;DHT22;10517;50.742;4.224;2023-04-01T01:48:23;9.90;99.90
20712;DHT22;10517;50.742;4.224;2023-04-01T01:50:50;9.80;99.90
20712;DHT22;10517;50.742;4.224;2023-04-01T01:53:16;9.80;99.90
20712;DHT22;10517;50.742;4.224;2023-04-01T01:55:44;9.90;99.90
20712;DHT22;10517;50.742;4.224;2023-04-01T01:58:25;10.00;99.90
20712;DHT22;10517;50.742;4.224;2023-04-01T02:01:02;10.10;99.90
20712;DHT22;10517;50.742;4.224;2023-04-01T02:03:31;10.00;99.90
20712;DHT22;10517;50.742;4.224;2023-04-01T02:06:00;10.00;99.90
20712;DHT22;10517;50.742;4.224;2023-04-01T02:08:34;10.10;99.90
20712;DHT22;10517;50.742;4.224;2023-04-01T02:11:04;10.00;99.90
20712;DHT22;10517;50.742;4.224;2023-04-01T02:13:32;10.00;99.90
20712;DHT22;10517;50.742;4.224;2023-04-01T02:16:02;9.90;99.90
20712;DHT22;10517;50.742;4.224;2023-04-01T02:18:30;9.90;99.90
20712;DHT22;10517;50.742;4.224;2023-04-01T02:20:59;9.90;99.90
20712;DHT22;10517;50.742;4.224;2023-04-01T02:23:26;9.80;99.90
20712;DHT22;10517;50.742;4.224;2023-04-01T02:25:52;9.70;99.90
20712;DHT22;10517;50.742;4.224;2023-04-01T02:28:19;9.60;99.90
20712;DHT22;10517;50.742;4.224;2023-04-01T02:30:47;9.60;99.90
20712;DHT22;10517;50.742;4.224;2023-04-01T02:33:15;9.50;99.90
20712;DHT22;10517;50.742;4.224;2023-04-01T02:35:41;9.50;99.90
20712;DHT22;10517;50.742;4.224;2023-04-01T02:38:06;9.50;99.90
20712;DHT22;10517;50.742;4.224;2023-04-01T02:40:44;9.50;99.90
20712;DHT22;10517;50.742;4.224;2023-04-01T02:43:10;9.50;99.90
20712;DHT22;10517;50.742;4.224;2023-04-01T02:45:35;9.50;99.90
20712;DHT22;10517;50.742;4.224;2023-04-01T02:48:01;9.50;99.90
20712;DHT22;10517;50.742;4.224;2023-04-01T02:50:26;9.60;99.90
20712;DHT22;10517;50.742;4.224;2023-04-01T02:52:52;9.60;99.90
20712;DHT22;10517;50.742;4.224;2023-04-01T02:55:18;9.80;99.90
20712;DHT22;10517;50.742;4.224;2023-04-01T02:57:43;9.80;99.90
20712;DHT22;10517;50.742;4.224;2023-04-01T03:00:09;9.80;99.90
20712;DHT22;10517;50.742;4.224;2023-04-01T03:02:37;9.70;99.90
20712;DHT22;10517;50.742;4.224;2023-04-01T03:05:04;9.60;99.90
20712;DHT22;10517;50.742;4.224;2023-04-01T03:07:31;9.70;99.90
20712;DHT22;10517;50.742;4.224;2023-04-01T03:09:56;9.50;99.90
20712;DHT22;10517;50.742;4.224;2023-04-01T03:12:22;9.50;99.90
20712;DHT22;10517;50.742;4.224;2023-04-01T03:14:47;9.50;99.90
20712;DHT22;10517;50.742;4.224;2023-04-01T03:17:13;9.40;99.90
20712;DHT22;10517;50.742;4.224;2023-04-01T03:19:39;9.50;99.90
20712;DHT22;10517;50.742;4.224;2023-04-01T03:22:04;9.40;99.90
20712;DHT22;10517;50.742;4.224;2023-04-01T03:24:30;9.50;99.90
20712;DHT22;10517;50.742;4.224;2023-04-01T03:26:55;9.40;99.90
20712;DHT22;10517;50.742;4.224;2023-04-01T03:29:21;9.40;99.90
20712;DHT22;10517;50.742;4.224;2023-04-01T03:31:47;9.50;99.90
20712;DHT22;10517;50.742;4.224;2023-04-01T03:34:12;9.50;99.90
20712;DHT22;10517;50.742;4.224;2023-04-01T03:36:38;9.30;99.90
20712;DHT22;10517;50.742;4.224;2023-04-01T03:39:04;9.40;99.90
20712;DHT22;10517;50.742;4.224;2023-04-01T03:41:30;9.40;99.90
20712;DHT22;10517;50.742;4.224;2023-04-01T03:43:56;9.30;99.90
20712;DHT22;10517;50.742;4.224;2023-04-01T03:46:22;9.30;99.90
20712;DHT22;10517;50.742;4.224;2023-04-01T03:48:47;9.50;99.90
20712;DHT22;10517;50.742;4.224;2023-04-01T03:51:13;9.40;99.90
20712;DHT22;10517;50.742;4.224;2023-04-01T03:53:39;9.40;99.90
20712;DHT22;10517;50.742;4.224;2023-04-01T03:56:08;9.40;99.90
20712;DHT22;10517;50.742;4.224;2023-04-01T03:58:35;9.50;99.90
20712;DHT22;10517;50.742;4.224;2023-04-01T04:01:00;9.50;99.90
20712;DHT22;10517;50.742;4.224;2023-04-01T04:03:26;9.50;99.90
20712;DHT22;10517;50.742;4.224;2023-04-01T04:05:52;9.50;99.90
20712;DHT22;10517;50.742;4.224;2023-04-01T04:08:18;9.50;99.90
20712;DHT22;10517;50.742;4.224;2023-04-01T04:10:44;9.50;99.90
20712;DHT22;10517;50.742;4.224;2023-04-01T04:13:09;9.60;99.90
20712;DHT22;10517;50.742;4.224;2023-04-01T04:15:35;9.50;99.90
20712;DHT22;10517;50.742;4.224;2023-04-01T04:18:00;9.50;99.90
20712;DHT22;10517;50.742;4.224;2023-04-01T04:20:26;9.40;99.90
20712;DHT22;10517;50.742;4.224;2023-04-01T04:22:52;9.40;99.90
20712;DHT22;10517;50.742;4.224;2023-04-01T04:25:17;9.50;99.90
20712;DHT22;10517;50.742;4.224;2023-04-01T04:27:43;9.60;99.90
20712;DHT22;10517;50.742;4.224;2023-04-01T04:30:09;9.50;99.90
20712;DHT22;10517;50.742;4.224;2023-04-01T04:32:35;9.50;99.90
20712;DHT22;10517;50.742;4.224;2023-04-01T04:35:00;9.50;99.90
20712;DHT22;10517;50.742;4.224;2023-04-01T04:37:26;9.50;99.90
20712;DHT22;10517;50.742;4.224;2023-04-01T04:39:52;9.50;99.90
20712;DHT22;10517;50.742;4.224;2023-04-01T04:42:18;9.50;99.90
20712;DHT22;10517;50.742;4.224;2023-04-01T04:44:43;9.60;99.90
20712;DHT22;10517;50.742;4.224;2023-04-01T04:47:09;9.60;99.90
20712;DHT22;10517;50.742;4.224;2023-04-01T04:49:34;9.60;99.90
20712;DHT22;10517;50.742;4.224;2023-04-01T04:52:00;9.60;99.90
20712;DHT22;10517;50.742;4.224;2023-04-01T04:54:26;9.50;99.90
20712;DHT22;10517;50.742;4.224;2023-04-01T04:56:52;9.50;99.90
20712;DHT22;10517;50.742;4.224;2023-04-01T04:59:18;9.60;99.90
20712;DHT22;10517;50.742;4.224;2023-04-01T05:01:43;9.60;99.90
20712;DHT22;10517;50.742;4.224;2023-04-01T05:04:09;9.70;99.90
20712;DHT22;10517;50.742;4.224;2023-04-01T05:06:35;9.60;99.90
20712;DHT22;10517;50.742;4.224;2023-04-01T05:09:00;9.50;99.90
20712;DHT22;10517;50.742;4.224;2023-04-01T05:11:26;9.50;99.90
20712;DHT22;10517;50.742;4.224;2023-04-01T05:13:52;9.50;99.90
20712;DHT22;10517;50.742;4.224;2023-04-01T05:16:19;9.40;99.90
20712;DHT22;10517;50.742;4.224;2023-04-01T05:18:46;9.40;99.90
20712;DHT22;10517;50.742;4.224;2023-04-01T05:21:14;9.40;99.90
20712;DHT22;10517;50.742;4.224;2023-04-01T05:23:40;9.50;99.90
20712;DHT22;10517;50.742;4.224;2023-04-01T05:26:11;9.40;99.90
20712;DHT22;10517;50.742;4.224;2023-04-01T05:28:38;9.30;99.90
20712;DHT22;10517;50.742;4.224;2023-04-01T05:31:04;9.20;99.90
20712;DHT22;10517;50.742;4.224;2023-04-01T05:33:31;9.20;99.90
20712;DHT22;10517;50.742;4.224;2023-04-01T05:35:57;9.10;99.90
20712;DHT22;10517;50.742;4.224;2023-04-01T05:38:30;9.20;99.90
20712;DHT22;10517;50.742;4.224;2023-04-01T05:40:59;9.20;99.90
20712;DHT22;10517;50.742;4.224;2023-04-01T05:43:25;9.10;99.90
20712;DHT22;10517;50.742;4.224;2023-04-01T05:45:51;9.10;99.90
20712;DHT22;10517;50.742;4.224;2023-04-01T05:48:17;9.20;99.90
20712;DHT22;10517;50.742;4.224;2023-04-01T05:50:42;9.30;99.90
20712;DHT22;10517;50.742;4.224;2023-04-01T05:53:08;9.40;99.90
20712;DHT22;10517;50.742;4.224;2023-04-01T05:55:35;9.40;99.90
20712;DHT22;10517;50.742;4.224;2023-04-01T05:58:01;9.30;99.90
20712;DHT22;10517;50.742;4.224;2023-04-01T06:00:26;9.30;99.90
20712;DHT22;10517;50.742;4.224;2023-04-01T06:02:52;9.40;99.90
20712;DHT22;10517;50.742;4.224;2023-04-01T06:05:24;9.30;99.90
20712;DHT22;10517;50.742;4.224;2023-04-01T06:07:58;9.30;99.90
20712;DHT22;10517;50.742;4.224;2023-04-01T06:19:14;9.30;99.90
20712;DHT22;10517;50.742;4.224;2023-04-01T06:21:48;9.20;99.90
20712;DHT22;10517;50.742;4.224;2023-04-01T06:30:33;9.20;99.90
20712;DHT22;10517;50.742;4.224;2023-04-01T06:38:21;9.20;99.90
20712;DHT22;10517;50.742;4.224;2023-04-01T06:48:53;9.20;99.90
20712;DHT22;10517;50.742;4.224;2023-04-01T06:51:37;9.30;99.90
20712;DHT22;10517;50.742;4.224;2023-04-01T06:54:10;9.30;99.90
20712;DHT22;10517;50.742;4.224;2023-04-01T06:56:40;9.30;99.90
20712;DHT22;10517;50.742;4.224;2023-04-01T06:59:47;9.30;99.90
20712;DHT22;10517;50.742;4.224;2023-04-01T07:02:18;9.40;99.90
20712;DHT22;10517;50.742;4.224;2023-04-01T07:04:48;9.50;99.90
20712;DHT22;10517;50.742;4.224;2023-04-01T07:07:21;9.50;99.90
20712;DHT22;10517;50.742;4.224;2023-04-01T07:09:52;9.50;99.90
20712;DHT22;10517;50.742;4.224;2023-04-01T07:14:54;9.50;99.90
20712;DHT22;10517;50.742;4.224;2023-04-01T07:17:25;9.50;99.90
20712;DHT22;10517;50.742;4.224;2023-04-01T07:22:33;9.50;99.90
20712;DHT22;10517;50.742;4.224;2023-04-01T07:25:11;9.40;99.90
20712;DHT22;10517;50.742;4.224;2023-04-01T07:27:36;9.50;99.90
20712;DHT22;10517;50.742;4.224;2023-04-01T07:30:04;9.40;99.90
20712;DHT22;10517;50.742;4.224;2023-04-01T07:35:30;9.50;99.90
20712;DHT22;10517;50.742;4.224;2023-04-01T07:46:18;9.70;99.90
20712;DHT22;10517;50.742;4.224;2023-04-01T07:59:42;9.50;99.90
20712;DHT22;10517;50.742;4.224;2023-04-01T08:02:25;9.60;99.90
20712;DHT22;10517;50.742;4.224;2023-04-01T08:07:28;9.50;99.90
20712;DHT22;10517;50.742;4.224;2023-04-01T08:13:42;9.40;99.90
20712;DHT22;10517;50.742;4.224;2023-04-01T08:16:36;9.40;99.90
20712;DHT22;10517;50.742;4.224;2023-04-01T08:22:00;9.50;99.90
20712;DHT22;10517;50.742;4.224;2023-04-01T08:24:42;9.60;99.90
20712;DHT22;10517;50.742;4.224;2023-04-01T08:27:31;9.70;99.90
20712;DHT22;10517;50.742;4.224;2023-04-01T08:30:17;9.80;99.90
20712;DHT22;10517;50.742;4.224;2023-04-01T08:32:50;9.80;99.90
20712;DHT22;10517;50.742;4.224;2023-04-01T08:35:33;9.80;99.90
20712;DHT22;10517;50.742;4.224;2023-04-01T08:38:09;9.80;99.90
20712;DHT22;10517;50.742;4.224;2023-04-01T08:40:55;9.80;99.90
20712;DHT22;10517;50.742;4.224;2023-04-01T08:43:51;9.70;99.90
20712;DHT22;10517;50.742;4.224;2023-04-01T08:46:32;9.80;99.90
20712;DHT22;10517;50.742;4.224;2023-04-01T08:49:17;9.90;99.90
20712;DHT22;10517;50.742;4.224;2023-04-01T08:52:27;10.00;99.90
20712;DHT22;10517;50.742;4.224;2023-04-01T09:01:11;10.00;99.90
20712;DHT22;10517;50.742;4.224;2023-04-01T09:14:27;10.00;99.90
20712;DHT22;10517;50.742;4.224;2023-04-01T09:17:30;9.90;99.90
20712;DHT22;10517;50.742;4.224;2023-04-01T09:20:25;10.00;99.90
20712;DHT22;10517;50.742;4.224;2023-04-01T09:28:20;10.20;99.90
20712;DHT22;10517;50.742;4.224;2023-04-01T09:33:54;10.10;99.90
20712;DHT22;10517;50.742;4.224;2023-04-01T09:39:04;10.30;99.90
20712;DHT22;10517;50.742;4.224;2023-04-01T09:44:35;10.50;99.90
20712;DHT22;10517;50.742;4.224;2023-04-01T09:47:24;10.50;99.90
20712;DHT22;10517;50.742;4.224;2023-04-01T09:55:54;10.70;99.90
20712;DHT22;10517;50.742;4.224;2023-04-01T10:12:08;10.80;99.90
20712;DHT22;10517;50.742;4.224;2023-04-01T10:18:05;10.90;99.90
20712;DHT22;10517;50.742;4.224;2023-04-01T10:32:29;10.90;99.90
20712;DHT22;10517;50.742;4.224;2023-04-01T11:08:05;10.50;99.90
20712;DHT22;10517;50.742;4.224;2023-04-01T11:15:58;10.70;99.90
20712;DHT22;10517;50.742;4.224;2023-04-01T11:21:54;10.70;99.90
20712;DHT22;10517;50.742;4.224;2023-04-01T11:44:20;10.50;99.90
20712;DHT22;10517;50.742;4.224;2023-04-01T12:06:44;11.20;99.90
20712;DHT22;10517;50.742;4.224;2023-04-01T12:14:41;11.00;99.90
20712;DHT22;10517;50.742;4.224;2023-04-01T12:31:21;10.70;99.90
20712;DHT22;10517;50.742;4.224;2023-04-01T12:37:25;10.50;99.90
20712;DHT22;10517;50.742;4.224;2023-04-01T12:48:36;10.40;99.90
20712;DHT22;10517;50.742;4.224;2023-04-01T12:53:51;10.40;99.90
20712;DHT22;10517;50.742;4.224;2023-04-01T12:56:44;10.60;99.90
20712;DHT22;10517;50.742;4.224;2023-04-01T13:05:15;10.50;99.90
20712;DHT22;10517;50.742;4.224;2023-04-01T13:08:05;10.50;99.90
20712;DHT22;10517;50.742;4.224;2023-04-01T13:13:57;10.50;99.90
20712;DHT22;10517;50.742;4.224;2023-04-01T13:16:52;10.40;99.90
20712;DHT22;10517;50.742;4.224;2023-04-01T13:19:49;10.30;99.90
20712;DHT22;10517;50.742;4.224;2023-04-01T13:28:13;10.50;99.90
20712;DHT22;10517;50.742;4.224;2023-04-01T13:41:38;10.20;99.90
20712;DHT22;10517;50.742;4.224;2023-04-01T13:44:31;10.20;99.90
20712;DHT22;10517;50.742;4.224;2023-04-01T13:47:10;10.30;99.90
20712;DHT22;10517;50.742;4.224;2023-04-01T13:49:48;10.40;99.90
20712;DHT22;10517;50.742;4.224;2023-04-01T14:12:10;10.10;99.90
20712;DHT22;10517;50.742;4.224;2023-04-01T14:23:04;9.80;99.90
20712;DHT22;10517;50.742;4.224;2023-04-01T14:28:40;9.80;99.90
20712;DHT22;10517;50.742;4.224;2023-04-01T14:31:36;9.80;99.90
20712;DHT22;10517;50.742;4.224;2023-04-01T14:37:14;9.60;99.90
20712;DHT22;10517;50.742;4.224;2023-04-01T14:47:39;9.60;99.90
20712;DHT22;10517;50.742;4.224;2023-04-01T14:50:18;9.50;99.90
20712;DHT22;10517;50.742;4.224;2023-04-01T14:58:13;9.50;99.90
20712;DHT22;10517;50.742;4.224;2023-04-01T15:00:50;9.50;99.90
20712;DHT22;10517;50.742;4.224;2023-04-01T15:15:23;9.30;99.90
20712;DHT22;10517;50.742;4.224;2023-04-01T15:18:12;9.40;99.90
20712;DHT22;10517;50.742;4.224;2023-04-01T15:21:06;9.30;99.90
20712;DHT22;10517;50.742;4.224;2023-04-01T15:40:47;9.70;99.90
20712;DHT22;10517;50.742;4.224;2023-04-01T15:43:41;9.80;99.90
20712;DHT22;10517;50.742;4.224;2023-04-01T15:51:58;9.80;99.90
20712;DHT22;10517;50.742;4.224;2023-04-01T15:57:37;9.70;99.90
20712;DHT22;10517;50.742;4.224;2023-04-01T16:03:13;9.70;99.90
20712;DHT22;10517;50.742;4.224;2023-04-01T16:20:12;9.50;99.90
20712;DHT22;10517;50.742;4.224;2023-04-01T16:22:59;9.50;99.90
20712;DHT22;10517;50.742;4.224;2023-04-01T16:25:39;9.50;99.90
20712;DHT22;10517;50.742;4.224;2023-04-01T16:33:46;9.30;99.90
20712;DHT22;10517;50.742;4.224;2023-04-01T16:36:59;9.20;99.90
20712;DHT22;10517;50.742;4.224;2023-04-01T16:42:51;9.20;99.90
20712;DHT22;10517;50.742;4.224;2023-04-01T16:45:45;9.30;99.90
20712;DHT22;10517;50.742;4.224;2023-04-01T16:48:22;9.40;99.90
20712;DHT22;10517;50.742;4.224;2023-04-01T16:50:59;9.40;99.90
20712;DHT22;10517;50.742;4.224;2023-04-01T16:56:56;9.40;99.90
20712;DHT22;10517;50.742;4.224;2023-04-01T17:01:49;9.30;99.90
20712;DHT22;10517;50.742;4.224;2023-04-01T17:18:50;9.20;99.90
20712;DHT22;10517;50.742;4.224;2023-04-01T17:21:29;9.30;99.90
20712;DHT22;10517;50.742;4.224;2023-04-01T17:27:13;9.20;99.90
20712;DHT22;10517;50.742;4.224;2023-04-01T17:32:57;9.20;99.90
20712;DHT22;10517;50.742;4.224;2023-04-01T17:38:22;9.10;99.90
20712;DHT22;10517;50.742;4.224;2023-04-01T17:46:50;9.10;99.90
20712;DHT22;10517;50.742;4.224;2023-04-01T17:55:15;9.00;99.90
20712;DHT22;10517;50.742;4.224;2023-04-01T18:06:55;9.00;99.90
20712;DHT22;10517;50.742;4.224;2023-04-01T18:12:42;8.90;99.90
20712;DHT22;10517;50.742;4.224;2023-04-01T18:15:28;8.90;99.90
20712;DHT22;10517;50.742;4.224;2023-04-01T18:20:33;9.00;99.90
20712;DHT22;10517;50.742;4.224;2023-04-01T18:25:48;8.90;99.90
20712;DHT22;10517;50.742;4.224;2023-04-01T18:31:20;9.00;99.90
20712;DHT22;10517;50.742;4.224;2023-04-01T18:33:48;8.90;99.90
20712;DHT22;10517;50.742;4.224;2023-04-01T18:36:35;9.00;99.90
20712;DHT22;10517;50.742;4.224;2023-04-01T18:39:21;8.90;99.90
20712;DHT22;10517;50.742;4.224;2023-04-01T18:44:55;8.80;99.90
20712;DHT22;10517;50.742;4.224;2023-04-01T18:56:01;8.80;99.90
20712;DHT22;10517;50.742;4.224;2023-04-01T19:06:35;8.60;99.90
20712;DHT22;10517;50.742;4.224;2023-04-01T19:09:26;8.60;99.90
20712;DHT22;10517;50.742;4.224;2023-04-01T19:14:44;8.60;99.90
20712;DHT22;10517;50.742;4.224;2023-04-01T19:17:16;8.50;99.90
20712;DHT22;10517;50.742;4.224;2023-04-01T19:25:51;8.50;99.90
20712;DHT22;10517;50.742;4.224;2023-04-01T19:30:54;8.40;99.90
20712;DHT22;10517;50.742;4.224;2023-04-01T19:38:43;8.40;99.90
20712;DHT22;10517;50.742;4.224;2023-04-01T19:46:44;8.50;99.90
20712;DHT22;10517;50.742;4.224;2023-04-01T19:52:46;8.40;99.90
20712;DHT22;10517;50.742;4.224;2023-04-01T19:55:36;8.40;99.90
20712;DHT22;10517;50.742;4.224;2023-04-01T20:01:10;8.50;99.90
20712;DHT22;10517;50.742;4.224;2023-04-01T20:03:57;8.50;99.90
20712;DHT22;10517;50.742;4.224;2023-04-01T20:15:31;8.50;99.90
20712;DHT22;10517;50.742;4.224;2023-04-01T20:18:00;8.40;99.90
20712;DHT22;10517;50.742;4.224;2023-04-01T20:20:29;8.40;99.90
20712;DHT22;10517;50.742;4.224;2023-04-01T20:25:24;8.40;99.90
20712;DHT22;10517;50.742;4.224;2023-04-01T20:36:00;8.30;99.90
20712;DHT22;10517;50.742;4.224;2023-04-01T20:47:18;8.40;99.90
20712;DHT22;10517;50.742;4.224;2023-04-01T20:55:01;8.40;99.90
20712;DHT22;10517;50.742;4.224;2023-04-01T20:57:56;8.40;99.90
20712;DHT22;10517;50.742;4.224;2023-04-01T21:00:36;8.40;99.90
20712;DHT22;10517;50.742;4.224;2023-04-01T21:12:46;8.40;99.90
20712;DHT22;10517;50.742;4.224;2023-04-01T21:15:19;8.40;99.90
20712;DHT22;10517;50.742;4.224;2023-04-01T21:34:34;8.40;99.90
20712;DHT22;10517;50.742;4.224;2023-04-01T21:48:07;8.50;99.90
20712;DHT22;10517;50.742;4.224;2023-04-01T21:51:11;8.50;99.90
20712;DHT22;10517;50.742;4.224;2023-04-01T21:54:02;8.50;99.90
20712;DHT22;10517;50.742;4.224;2023-04-01T22:04:51;8.40;99.90
20712;DHT22;10517;50.742;4.224;2023-04-01T22:07:20;8.40;99.90
20712;DHT22;10517;50.742;4.224;2023-04-01T22:15:13;8.50;99.90
20712;DHT22;10517;50.742;4.224;2023-04-01T22:26:38;8.60;99.90
20712;DHT22;10517;50.742;4.224;2023-04-01T22:29:23;8.60;99.90
20712;DHT22;10517;50.742;4.224;2023-04-01T22:42:45;8.70;99.90
20712;DHT22;10517;50.742;4.224;2023-04-01T22:45:38;8.70;99.90
20712;DHT22;10517;50.742;4.224;2023-04-01T22:48:22;8.70;99.90
20712;DHT22;10517;50.742;4.224;2023-04-01T22:54:02;8.70;99.90
20712;DHT22;10517;50.742;4.224;2023-04-01T22:56:41;8.70;99.90
20712;DHT22;10517;50.742;4.224;2023-04-01T22:59:19;8.70;99.90
20712;DHT22;10517;50.742;4.224;2023-04-01T23:02:00;8.80;99.90
20712;DHT22;10517;50.742;4.224;2023-04-01T23:04:37;8.80;99.90
20712;DHT22;10517;50.742;4.224;2023-04-01T23:07:38;8.70;99.90
20712;DHT22;10517;50.742;4.224;2023-04-01T23:10:06;8.80;99.90
20712;DHT22;10517;50.742;4.224;2023-04-01T23:12:38;8.80;99.90
20712;DHT22;10517;50.742;4.224;2023-04-01T23:15:12;8.80;99.90
20712;DHT22;10517;50.742;4.224;2023-04-01T23:17:41;8.80;99.90
20712;DHT22;10517;50.742;4.224;2023-04-01T23:20:35;8.70;99.90
20712;DHT22;10517;50.742;4.224;2023-04-01T23:28:32;8.70;99.90
20712;DHT22;10517;50.742;4.224;2023-04-01T23:31:01;8.80;99.90
20712;DHT22;10517;50.742;4.224;2023-04-01T23:33:30;8.80;99.90
20712;DHT22;10517;50.742;4.224;2023-04-01T23:36:22;8.80;99.90
20712;DHT22;10517;50.742;4.224;2023-04-01T23:38:49;8.80;99.90
20712;DHT22;10517;50.742;4.224;2023-04-01T23:41:33;8.80;99.90
20712;DHT22;10517;50.742;4.224;2023-04-01T23:46:31;8.80;99.90
20712;DHT22;10517;50.742;4.224;2023-04-01T23:48:58;8.80;99.90
20712;DHT22;10517;50.742;4.224;2023-04-01T23:51:28;8.70;99.90
20712;DHT22;10517;50.742;4.224;2023-04-01T23:54:29;8.70;99.90
20712;DHT22;10517;50.742;4.224;2023-04-01T23:56:56;8.70;99.90
20712;DHT22;10517;50.742;4.224;2023-04-01T23:59:30;8.70;99.90
